Time;durP1;ratioP1;P1;durP2;ratioP2;P2;SDS_P1;SDS_P2;PMS_P1;PMS_P2;Temp;Humidity;BMP_temperature;BMP_pressure;BME280_temperature;BME280_humidity;BME280_pressure;Samples;Min_cycle;Max_cycle;Signal;HPM_P1;HPM_P2
2021/05/18 00:00:19;;;;;;;23.25;10.48;;;9.80;99.90;;;;;;6092591;23;20117;-84
2021/05/18 00:02:47;;;;;;;18.10;8.98;;;9.70;99.90;;;;;;6090878;23;20054;-83
2021/05/18 00:05:16;;;;;;;18.70;9.52;;;9.60;99.90;;;;;;6090787;23;20018;-84
2021/05/18 00:07:57;;;;;;;18.70;9.75;;;9.50;99.90;;;;;;6088956;23;20538;-83
2021/05/18 00:13:13;;;;;;;18.60;9.13;;;9.30;99.90;;;;;;6091834;23;20478;-84
2021/05/18 00:15:41;;;;;;;23.50;10.20;;;9.20;99.90;;;;;;6090740;23;20068;-83
2021/05/18 00:18:08;;;;;;;20.58;9.38;;;9.20;99.90;;;;;;6090416;23;20133;-83
2021/05/18 00:20:35;;;;;;;22.17;10.02;;;9.10;99.90;;;;;;6089865;23;20028;-83
2021/05/18 00:23:08;;;;;;;22.90;10.65;;;9.10;99.90;;;;;;6090062;23;20026;-83
2021/05/18 00:25:35;;;;;;;18.27;9.75;;;9.10;99.90;;;;;;6091708;23;20026;-83
2021/05/18 00:28:01;;;;;;;20.65;9.55;;;9.00;99.90;;;;;;6089873;23;20079;-83
2021/05/18 00:30:28;;;;;;;19.38;10.25;;;9.00;99.90;;;;;;6091029;23;20403;-83
2021/05/18 00:32:55;;;;;;;15.15;8.90;;;8.90;99.90;;;;;;6091746;23;20045;-83
2021/05/18 00:35:22;;;;;;;18.52;9.45;;;8.90;99.90;;;;;;6094562;23;20026;-83
2021/05/18 00:37:49;;;;;;;21.63;10.50;;;8.80;99.90;;;;;;6097781;23;22079;-83
2021/05/18 00:40:19;;;;;;;20.08;10.75;;;8.80;99.90;;;;;;6096519;23;20022;-83
2021/05/18 00:42:51;;;;;;;19.58;9.52;;;8.80;99.90;;;;;;6096524;23;20022;-84
2021/05/18 00:45:27;;;;;;;17.08;9.93;;;8.70;99.90;;;;;;6097470;23;20097;-83
2021/05/18 00:47:54;;;;;;;14.55;9.73;;;8.80;99.90;;;;;;6094574;23;20025;-83
2021/05/18 00:50:22;;;;;;;22.45;10.52;;;8.80;99.90;;;;;;6094135;23;20032;-83
2021/05/18 00:52:48;;;;;;;21.55;10.55;;;8.80;99.90;;;;;;6097108;23;20047;-83
2021/05/18 00:55:41;;;;;;;19.65;10.38;;;8.90;99.90;;;;;;6120223;23;20485;-84
2021/05/18 00:58:26;;;;;;;15.27;9.52;;;9.00;99.90;;;;;;6118006;23;20022;-83
2021/05/18 01:00:56;;;;;;;18.35;9.60;;;9.00;99.90;;;;;;6095946;23;20025;-83
2021/05/18 01:03:22;;;;;;;19.73;10.10;;;9.10;99.90;;;;;;6097463;23;20025;-83
2021/05/18 01:08:35;;;;;;;20.17;10.32;;;9.20;99.90;;;;;;6122213;23;20045;-83
2021/05/18 01:11:04;;;;;;;18.75;9.50;;;9.20;99.90;;;;;;6100142;23;20540;-83
2021/05/18 01:13:32;;;;;;;23.05;10.48;;;9.20;99.90;;;;;;6104817;23;20096;-83
2021/05/18 01:15:59;;;;;;;19.83;10.75;;;9.20;99.90;;;;;;6096785;23;20049;-83
2021/05/18 01:18:26;;;;;;;19.50;9.77;;;9.20;99.90;;;;;;6127444;23;20033;-83
2021/05/18 01:20:58;;;;;;;17.45;9.65;;;9.20;99.90;;;;;;6107857;23;20052;-83
2021/05/18 01:23:27;;;;;;;19.75;9.93;;;9.30;99.90;;;;;;6130918;23;20026;-83
2021/05/18 01:25:54;;;;;;;23.42;10.43;;;9.30;99.90;;;;;;6104830;23;20060;-83
2021/05/18 01:28:23;;;;;;;20.50;10.15;;;9.40;99.90;;;;;;6100426;23;20022;-83
2021/05/18 01:30:50;;;;;;;19.52;10.02;;;9.40;99.90;;;;;;6097586;23;20018;-84
2021/05/18 01:33:17;;;;;;;21.98;10.93;;;9.40;99.90;;;;;;6071539;23;20528;-84
2021/05/18 01:35:45;;;;;;;23.67;10.02;;;9.40;99.90;;;;;;6094617;23;20025;-83
2021/05/18 01:38:16;;;;;;;16.40;9.65;;;9.40;99.90;;;;;;6095810;23;20022;-83
2021/05/18 01:43:11;;;;;;;19.00;9.57;;;9.50;99.90;;;;;;6127332;23;20022;-84
2021/05/18 01:45:41;;;;;;;21.63;10.30;;;9.50;99.90;;;;;;6120324;23;20045;-83
2021/05/18 01:48:13;;;;;;;25.02;10.95;;;9.50;99.90;;;;;;6094342;23;20443;-82
2021/05/18 01:50:44;;;;;;;24.00;9.80;;;9.50;99.90;;;;;;6091453;23;20026;-83
2021/05/18 01:53:13;;;;;;;19.33;10.20;;;9.50;99.90;;;;;;6093477;23;20420;-83
2021/05/18 01:55:45;;;;;;;25.17;11.20;;;9.50;99.90;;;;;;6094827;23;20029;-83
2021/05/18 01:58:12;;;;;;;25.98;11.13;;;9.50;99.90;;;;;;6094189;23;20026;-83
2021/05/18 02:00:41;;;;;;;22.65;10.35;;;9.50;99.90;;;;;;6094153;23;20026;-84
2021/05/18 02:03:08;;;;;;;27.88;11.07;;;9.50;99.90;;;;;;6070906;23;20022;-84
2021/05/18 02:05:40;;;;;;;21.50;10.82;;;9.50;99.90;;;;;;6096438;23;20124;-84
2021/05/18 02:08:11;;;;;;;22.75;10.80;;;9.50;99.90;;;;;;6120228;23;20026;-84
2021/05/18 02:10:39;;;;;;;25.08;11.02;;;9.60;99.90;;;;;;6094787;23;20083;-83
2021/05/18 02:13:06;;;;;;;20.50;10.93;;;9.60;99.90;;;;;;6095417;23;20026;-84
2021/05/18 02:20:48;;;;;;;21.42;10.75;;;9.70;99.90;;;;;;6120472;23;20026;-83
2021/05/18 02:26:01;;;;;;;19.90;10.07;;;9.80;99.90;;;;;;6120872;23;20022;-82
2021/05/18 02:28:29;;;;;;;32.88;10.55;;;9.80;99.90;;;;;;6121214;23;20049;-83
2021/05/18 02:30:56;;;;;;;21.33;9.85;;;9.80;99.90;;;;;;6094148;23;20026;-83
2021/05/18 02:33:23;;;;;;;20.65;10.07;;;9.80;99.90;;;;;;6085865;23;20026;-83
2021/05/18 02:35:50;;;;;;;28.35;11.02;;;9.90;99.90;;;;;;6075163;23;20029;-82
2021/05/18 02:38:17;;;;;;;21.08;11.20;;;9.90;99.90;;;;;;6064299;23;20038;-83
2021/05/18 02:40:44;;;;;;;25.05;10.63;;;9.90;99.90;;;;;;6039691;23;20050;-83
2021/05/18 02:43:15;;;;;;;24.17;10.77;;;9.90;99.90;;;;;;6062295;23;20104;-83
2021/05/18 02:46:02;;;;;;;29.75;11.02;;;10.00;99.90;;;;;;6075962;23;20050;-83
2021/05/18 02:51:17;;;;;;;27.58;11.32;;;10.00;99.90;;;;;;6077622;23;20383;-83
2021/05/18 02:53:44;;;;;;;23.02;10.32;;;10.00;99.90;;;;;;6077655;23;24875;-83
2021/05/18 02:56:22;;;;;;;22.08;10.60;;;10.00;99.90;;;;;;6076908;23;20025;-84
2021/05/18 02:59:08;;;;;;;32.85;10.68;;;10.10;99.90;;;;;;6058205;23;20022;-83
2021/05/18 03:01:35;;;;;;;26.67;11.60;;;10.10;99.90;;;;;;6078732;23;20031;-83
2021/05/18 03:04:04;;;;;;;27.90;11.45;;;10.10;99.90;;;;;;6073857;23;20526;-83
2021/05/18 03:06:30;;;;;;;26.77;10.88;;;10.20;99.90;;;;;;6076412;23;20078;-83
2021/05/18 03:08:57;;;;;;;25.35;10.43;;;10.10;99.90;;;;;;6077400;23;20022;-83
2021/05/18 03:11:24;;;;;;;21.92;10.63;;;10.10;99.90;;;;;;6060294;23;20022;-83
2021/05/18 03:13:52;;;;;;;24.77;10.60;;;10.10;99.90;;;;;;6069844;23;20106;-83
2021/05/18 03:16:19;;;;;;;31.83;11.82;;;10.10;99.90;;;;;;6078076;23;20053;-83
2021/05/18 03:18:46;;;;;;;23.98;10.80;;;10.00;99.90;;;;;;6005522;23;20019;-84
2021/05/18 03:21:13;;;;;;;33.28;11.35;;;10.00;99.90;;;;;;6062262;23;20051;-84
2021/05/18 03:23:40;;;;;;;28.73;10.40;;;10.00;99.90;;;;;;6076782;23;20027;-84
2021/05/18 03:26:07;;;;;;;26.92;9.80;;;10.00;99.90;;;;;;6077559;23;20022;-84
2021/05/18 03:28:34;;;;;;;22.33;10.00;;;10.10;99.90;;;;;;6077838;23;20117;-84
2021/05/18 03:36:13;;;;;;;24.35;10.20;;;10.10;99.90;;;;;;6080940;23;20010;-84
2021/05/18 03:38:45;;;;;;;26.02;10.45;;;10.10;99.90;;;;;;6077168;23;20033;-84
2021/05/18 03:41:45;;;;;;;29.70;9.50;;;10.10;99.90;;;;;;6077055;23;20106;-84
2021/05/18 03:44:09;;;;;;;26.77;10.85;;;10.10;99.90;;;;;;6081863;23;20029;-84
2021/05/18 04:03:07;;;;;;;24.38;11.23;;;10.10;99.90;;;;;;5954449;24;20020;-86
2021/05/18 04:21:42;;;;;;;46.63;12.55;;;9.90;99.90;;;;;;6093337;23;20073;-85
2021/05/18 04:51:42;;;;;;;44.65;14.70;;;9.90;99.90;;;;;;6093452;23;20053;-84
2021/05/18 04:54:42;;;;;;;42.38;14.70;;;9.90;99.90;;;;;;6091459;23;20026;-85
2021/05/18 04:59:54;;;;;;;49.05;14.05;;;10.00;99.90;;;;;;6091125;23;20029;-84
2021/05/18 05:08:10;;;;;;;48.42;14.85;;;10.10;99.90;;;;;;6094595;23;20367;-84
2021/05/18 05:15:39;;;;;;;;;;;10.10;99.90;;;;;;6100582;23;20026;-86
2021/05/18 05:18:06;;;;;;;58.13;16.83;;;10.20;99.90;;;;;;6074810;23;19949;-85
2021/05/18 05:20:33;;;;;;;46.08;17.50;;;10.30;99.90;;;;;;6066363;23;20053;-86
2021/05/18 05:23:00;;;;;;;49.28;17.33;;;10.40;99.90;;;;;;6067057;23;20527;-86
2021/05/18 05:25:27;;;;;;;54.35;17.05;;;10.50;99.90;;;;;;6066757;23;20345;-85
2021/05/18 05:27:53;;;;;;;51.58;16.85;;;10.60;99.90;;;;;;6066285;23;20043;-85
2021/05/18 05:30:21;;;;;;;45.58;17.23;;;10.60;99.90;;;;;;6092066;23;20025;-84
2021/05/18 05:32:48;;;;;;;51.10;17.63;;;10.70;99.90;;;;;;6064078;23;20033;-84
2021/05/18 05:35:16;;;;;;;52.15;17.88;;;10.80;99.90;;;;;;6065532;23;20030;-84
2021/05/18 05:37:43;;;;;;;46.95;15.40;;;10.90;99.90;;;;;;6066467;23;20416;-85
2021/05/18 05:40:10;;;;;;;45.17;15.75;;;10.90;99.90;;;;;;6063875;23;20010;-85
2021/05/18 05:42:37;;;;;;;47.03;16.45;;;10.90;99.90;;;;;;6067202;23;20023;-85
2021/05/18 05:45:04;;;;;;;40.38;15.30;;;10.90;99.90;;;;;;6067369;23;20018;-85
2021/05/18 05:47:31;;;;;;;33.58;14.82;;;10.90;99.90;;;;;;6066823;23;20058;-85
2021/05/18 05:49:58;;;;;;;41.92;16.00;;;10.90;99.90;;;;;;6065124;23;20054;-85
2021/05/18 05:52:25;;;;;;;39.17;15.75;;;10.90;99.90;;;;;;6068387;23;20034;-85
2021/05/18 05:54:52;;;;;;;39.13;14.20;;;10.90;99.90;;;;;;6068669;23;20003;-85
2021/05/18 05:57:19;;;;;;;40.42;14.02;;;10.90;99.90;;;;;;6070512;23;20038;-84
2021/05/18 05:59:47;;;;;;;35.20;13.38;;;11.00;99.90;;;;;;6064101;23;20026;-85
2021/05/18 06:02:14;;;;;;;29.30;12.80;;;11.00;99.90;;;;;;6061478;23;20095;-85
2021/05/18 06:04:41;;;;;;;28.13;12.05;;;11.00;99.90;;;;;;6063206;23;20098;-85
2021/05/18 06:07:08;;;;;;;37.03;12.88;;;11.10;99.90;;;;;;6050803;23;20026;-85
2021/05/18 06:09:36;;;;;;;24.98;11.70;;;11.20;99.90;;;;;;6065575;23;20073;-86
2021/05/18 06:17:53;;;;;;;27.08;10.63;;;11.30;99.90;;;;;;6052978;23;20044;-85
2021/05/18 06:42:59;;;;;;;17.33;7.45;;;11.80;99.90;;;;;;6089644;23;20034;-85
2021/05/18 06:48:11;;;;;;;12.50;5.35;;;12.10;99.90;;;;;;6089152;23;20048;-85
2021/05/18 06:50:38;;;;;;;11.35;5.95;;;12.20;99.90;;;;;;6065599;23;20027;-85
2021/05/18 06:53:05;;;;;;;8.82;5.65;;;12.30;99.90;;;;;;6063670;23;20022;-86
2021/05/18 06:55:33;;;;;;;11.90;6.60;;;12.30;99.90;;;;;;6065219;23;20054;-85
2021/05/18 06:58:04;;;;;;;15.65;6.68;;;12.50;99.90;;;;;;6060908;23;20117;-84
2021/05/18 07:00:33;;;;;;;13.55;6.45;;;12.70;99.90;;;;;;6062664;23;20046;-85
2021/05/18 07:03:00;;;;;;;14.98;6.95;;;12.80;99.90;;;;;;6049779;23;20092;-85
2021/05/18 07:10:45;;;;;;;16.90;6.40;;;13.10;99.90;;;;;;6047558;23;20082;-85
2021/05/18 07:13:15;;;;;;;13.43;7.55;;;13.20;99.90;;;;;;6091217;23;20105;-84
2021/05/18 07:15:42;;;;;;;12.27;7.15;;;13.40;99.90;;;;;;6069363;23;20026;-84
2021/05/18 07:18:12;;;;;;;13.57;7.40;;;13.50;99.90;;;;;;6067318;23;20113;-84
2021/05/18 07:20:39;;;;;;;16.20;7.47;;;13.60;99.90;;;;;;6065642;23;20058;-84
2021/05/18 07:23:11;;;;;;;17.00;8.55;;;13.70;99.90;;;;;;6056143;23;20054;-84
2021/05/18 07:25:38;;;;;;;14.98;7.55;;;13.70;99.90;;;;;;6072473;23;20026;-84
2021/05/18 07:28:08;;;;;;;15.20;7.40;;;13.80;99.90;;;;;;6067939;23;20062;-85
2021/05/18 07:30:39;;;;;;;14.73;8.13;;;13.80;99.90;;;;;;6063212;23;20030;-85
2021/05/18 07:33:07;;;;;;;11.07;7.78;;;13.90;99.90;;;;;;6088734;23;20049;-85
2021/05/18 07:35:34;;;;;;;15.60;8.45;;;14.10;99.90;;;;;;6067470;23;20042;-85
2021/05/18 07:38:02;;;;;;;12.98;7.60;;;14.20;99.90;;;;;;6067509;23;20034;-85
2021/05/18 07:40:29;;;;;;;12.52;8.18;;;14.20;99.90;;;;;;6066565;23;20029;-85
2021/05/18 07:42:59;;;;;;;14.25;8.70;;;14.30;99.90;;;;;;6052584;23;20542;-85
2021/05/18 07:45:27;;;;;;;17.73;9.00;;;14.30;99.90;;;;;;6089378;23;20098;-85
2021/05/18 07:50:56;;;;;;;13.60;8.88;;;14.50;99.90;;;;;;6018915;23;20078;-85
2021/05/18 08:06:52;;;;;;;13.80;8.30;;;14.60;99.90;;;;;;6088138;23;20061;-84
2021/05/18 08:09:21;;;;;;;13.73;8.23;;;14.70;99.90;;;;;;6064725;23;20018;-84
2021/05/18 08:11:54;;;;;;;13.18;8.07;;;14.90;99.90;;;;;;6089249;23;20082;-85
2021/05/18 08:14:22;;;;;;;12.88;8.35;;;15.10;99.90;;;;;;6064683;23;20395;-85
2021/05/18 08:17:01;;;;;;;13.25;8.07;;;15.20;99.90;;;;;;6064414;23;20543;-85
2021/05/18 08:19:58;;;;;;;12.88;8.57;;;15.40;99.90;;;;;;6066729;23;20069;-85
2021/05/18 08:48:29;;;;;;;11.00;6.07;;;16.00;99.90;;;;;;6089573;23;20041;-85
2021/05/18 09:48:40;;;;;;;7.40;4.63;;;19.00;99.90;;;;;;6075928;23;20021;-84
2021/05/18 10:17:05;;;;;;;8.32;6.10;;;18.80;99.90;;;;;;6086685;23;20058;-84
2021/05/18 10:35:53;;;;;;;6.38;5.68;;;19.30;99.70;;;;;;6070536;23;20030;-85
2021/05/18 10:38:32;;;;;;;7.68;5.78;;;19.50;99.90;;;;;;6084130;23;20071;-85
2021/05/18 10:41:18;;;;;;;6.30;5.15;;;19.40;99.90;;;;;;6061786;23;20053;-84
2021/05/18 10:43:58;;;;;;;6.38;4.50;;;19.50;99.90;;;;;;6060092;23;20053;-86
2021/05/18 10:46:28;;;;;;;9.98;6.75;;;19.60;98.90;;;;;;6059783;23;20026;-85
2021/05/18 10:49:05;;;;;;;6.97;5.68;;;19.60;99.00;;;;;;6047795;23;20026;-85
2021/05/18 10:51:35;;;;;;;9.63;6.65;;;19.50;98.20;;;;;;6061080;23;20022;-85
2021/05/18 10:54:10;;;;;;;8.93;6.82;;;19.40;97.80;;;;;;6061429;23;20410;-85
2021/05/18 10:56:56;;;;;;;9.98;5.97;;;19.30;97.80;;;;;;6062923;23;20026;-85
2021/05/18 10:59:30;;;;;;;7.97;5.75;;;19.40;98.00;;;;;;6064594;23;20085;-85
2021/05/18 11:02:11;;;;;;;;;;;19.60;99.70;;;;;;6090764;23;20044;-85
2021/05/18 11:04:44;;;;;;;6.63;5.65;;;20.00;97.80;;;;;;6062273;23;19917;-85
2021/05/18 11:07:15;;;;;;;7.45;6.18;;;20.10;97.10;;;;;;6060077;23;20033;-85
2021/05/18 11:09:43;;;;;;;8.57;5.75;;;20.20;96.30;;;;;;6061925;23;20026;-85
2021/05/18 11:12:15;;;;;;;8.55;6.03;;;20.20;98.60;;;;;;6061359;23;20399;-85
2021/05/18 11:14:57;;;;;;;7.45;6.10;;;20.60;96.50;;;;;;6062217;23;20026;-85
2021/05/18 11:17:27;;;;;;;9.98;5.97;;;21.10;96.90;;;;;;6062779;23;20029;-85
2021/05/18 11:20:07;;;;;;;8.88;5.00;;;21.50;92.00;;;;;;6061434;23;20026;-85
2021/05/18 11:25:35;;;;;;;6.22;5.35;;;21.10;91.50;;;;;;6089307;23;20023;-85
2021/05/18 11:28:34;;;;;;;9.10;5.88;;;21.00;90.60;;;;;;6066560;23;20022;-85
2021/05/18 11:31:07;;;;;;;6.28;4.40;;;20.90;92.30;;;;;;6066773;23;20101;-85
2021/05/18 11:33:35;;;;;;;6.38;5.72;;;21.50;92.10;;;;;;6068846;23;20054;-84
2021/05/18 11:36:12;;;;;;;9.20;5.07;;;21.70;90.30;;;;;;6070917;23;20014;-85
2021/05/18 11:38:48;;;;;;;6.35;5.20;;;21.90;90.40;;;;;;6074024;23;20010;-85
2021/05/18 11:41:42;;;;;;;5.55;5.00;;;22.00;84.50;;;;;;6080100;23;20022;-85
2021/05/18 11:44:11;;;;;;;7.75;5.82;;;21.80;82.10;;;;;;6077968;23;20022;-85
2021/05/18 11:46:58;;;;;;;7.78;5.63;;;21.50;84.80;;;;;;6079865;23;20328;-85
2021/05/18 11:49:25;;;;;;;9.55;5.22;;;21.30;85.50;;;;;;6064334;23;20006;-84
2021/05/18 11:51:54;;;;;;;7.53;5.22;;;21.20;88.60;;;;;;6078119;23;20019;-84
2021/05/18 11:54:40;;;;;;;6.95;5.68;;;21.30;86.70;;;;;;6069194;23;20018;-84
2021/05/18 11:57:07;;;;;;;7.00;4.93;;;21.70;87.60;;;;;;6064254;23;20016;-85
2021/05/18 11:59:37;;;;;;;7.00;4.55;;;22.10;86.50;;;;;;6063234;23;20026;-85
2021/05/18 12:02:05;;;;;;;7.15;4.85;;;22.40;82.50;;;;;;6065290;23;20038;-85
2021/05/18 12:04:41;;;;;;;7.03;5.25;;;22.70;85.30;;;;;;6060862;23;20022;-85
2021/05/18 12:07:12;;;;;;;6.25;5.43;;;23.50;83.00;;;;;;6044845;23;20134;-85
2021/05/18 12:09:41;;;;;;;7.07;5.18;;;24.10;76.50;;;;;;6063010;23;20057;-86
2021/05/18 12:12:14;;;;;;;5.30;4.63;;;24.70;76.10;;;;;;6087476;23;20011;-85
2021/05/18 12:14:52;;;;;;;6.15;4.53;;;25.60;71.00;;;;;;6049692;23;20030;-85
2021/05/18 12:17:26;;;;;;;7.38;4.93;;;26.10;66.10;;;;;;6063140;23;20023;-86
2021/05/18 12:19:54;;;;;;;6.32;4.40;;;26.40;62.40;;;;;;6063028;23;20022;-86
2021/05/18 12:22:21;;;;;;;6.20;4.65;;;26.80;61.70;;;;;;6061370;23;20345;-86
2021/05/18 12:24:49;;;;;;;5.53;4.53;;;26.90;61.50;;;;;;6059830;23;20026;-86
2021/05/18 12:27:16;;;;;;;5.18;4.00;;;26.70;59.50;;;;;;6057589;23;20105;-85
2021/05/18 12:29:51;;;;;;;5.38;3.42;;;26.30;58.20;;;;;;6058897;23;20074;-85
2021/05/18 12:32:28;;;;;;;15.88;4.20;;;25.70;56.90;;;;;;6059655;23;20023;-85
2021/05/18 12:35:03;;;;;;;5.82;4.70;;;24.70;57.70;;;;;;6063331;23;20053;-85
2021/05/18 12:37:52;;;;;;;4.03;3.63;;;23.70;61.50;;;;;;6060557;23;20062;-85
2021/05/18 12:40:22;;;;;;;7.05;3.88;;;22.70;64.90;;;;;;6063587;23;20022;-85
2021/05/18 12:42:49;;;;;;;4.63;4.05;;;22.10;68.80;;;;;;6065148;23;20097;-83
2021/05/18 12:45:16;;;;;;;3.42;3.13;;;21.80;69.50;;;;;;6065666;23;20045;-85
2021/05/18 12:47:43;;;;;;;5.22;3.60;;;21.50;70.00;;;;;;6063846;23;20044;-85
2021/05/18 12:50:13;;;;;;;6.05;3.97;;;21.20;69.80;;;;;;6063843;23;20038;-85
2021/05/18 12:52:50;;;;;;;5.45;3.10;;;20.60;72.00;;;;;;6064136;23;20018;-85
2021/05/18 12:55:28;;;;;;;4.40;1.70;;;19.90;74.80;;;;;;6062547;23;20032;-85
2021/05/18 12:57:57;;;;;;;4.68;1.48;;;19.10;75.70;;;;;;6062628;23;20049;-85
2021/05/18 13:00:37;;;;;;;2.00;1.00;;;18.50;79.50;;;;;;6069131;23;20038;-85
2021/05/18 13:03:19;;;;;;;1.55;0.88;;;18.20;82.60;;;;;;6068457;23;20343;-85
2021/05/18 13:06:06;;;;;;;1.05;0.80;;;18.90;81.50;;;;;;6063678;23;20292;-84
2021/05/18 13:08:37;;;;;;;3.70;1.80;;;19.20;79.10;;;;;;6060725;23;20418;-84
2021/05/18 13:13:43;;;;;;;8.27;5.32;;;18.90;84.70;;;;;;6090102;23;20041;-84
2021/05/18 13:16:19;;;;;;;13.25;6.70;;;18.80;90.10;;;;;;6065824;23;20407;-85
2021/05/18 13:18:56;;;;;;;9.55;7.35;;;19.10;92.20;;;;;;6066546;23;20026;-85
2021/05/18 13:21:29;;;;;;;10.60;7.07;;;19.80;98.40;;;;;;6064806;23;20054;-85
2021/05/18 13:26:35;;;;;;;6.43;4.82;;;22.50;85.60;;;;;;6081505;23;20029;-85
2021/05/18 13:29:06;;;;;;;6.72;5.15;;;22.60;79.80;;;;;;6073694;23;20054;-85
2021/05/18 13:31:35;;;;;;;8.82;5.22;;;22.60;76.30;;;;;;6058088;23;20007;-84
2021/05/18 13:34:03;;;;;;;5.90;4.40;;;22.30;76.40;;;;;;6073449;23;20022;-85
2021/05/18 13:36:42;;;;;;;6.72;4.70;;;21.90;78.60;;;;;;6060018;23;20026;-85
2021/05/18 13:39:12;;;;;;;6.65;4.40;;;21.60;80.20;;;;;;6065686;23;20348;-84
2021/05/18 13:41:40;;;;;;;7.97;5.55;;;21.30;80.30;;;;;;6053429;23;20110;-85
2021/05/18 13:44:08;;;;;;;9.88;5.85;;;20.80;79.50;;;;;;6063667;23;20026;-85
2021/05/18 13:46:36;;;;;;;6.45;4.15;;;20.40;81.30;;;;;;6063811;23;20069;-86
2021/05/18 13:49:10;;;;;;;5.38;3.55;;;20.10;84.20;;;;;;6063659;23;20022;-85
2021/05/18 13:51:37;;;;;;;4.50;2.80;;;20.90;85.30;;;;;;6048909;23;20054;-86
2021/05/18 13:54:15;;;;;;;5.53;2.47;;;22.60;84.00;;;;;;6064831;23;20141;-85
2021/05/18 13:56:42;;;;;;;3.85;2.88;;;23.90;75.00;;;;;;6062421;23;20065;-85
2021/05/18 13:59:09;;;;;;;3.63;2.80;;;24.80;69.40;;;;;;6058389;23;20034;-86
2021/05/18 14:01:36;;;;;;;4.30;2.40;;;24.90;65.50;;;;;;6064208;23;20022;-86
2021/05/18 14:04:03;;;;;;;9.68;2.75;;;25.60;68.40;;;;;;6058026;23;20077;-86
2021/05/18 14:06:32;;;;;;;4.93;2.88;;;26.10;60.20;;;;;;6083121;23;20029;-85
2021/05/18 14:09:01;;;;;;;3.40;3.10;;;25.80;60.50;;;;;;6048985;23;20094;-86
2021/05/18 14:11:28;;;;;;;3.58;2.22;;;25.20;58.90;;;;;;6046076;23;20023;-87
2021/05/18 14:13:59;;;;;;;3.22;2.38;;;24.40;59.70;;;;;;6061113;23;20054;-86
2021/05/18 14:16:26;;;;;;;4.15;2.58;;;24.60;60.80;;;;;;6057060;23;20018;-86
2021/05/18 14:18:57;;;;;;;5.13;2.58;;;24.30;61.10;;;;;;6032935;23;20069;-86
2021/05/18 14:21:26;;;;;;;5.47;2.50;;;23.90;61.40;;;;;;6049727;23;20086;-86
2021/05/18 14:24:09;;;;;;;5.20;2.40;;;23.70;60.90;;;;;;6046776;23;20046;-86
2021/05/18 14:26:37;;;;;;;2.80;2.00;;;23.40;63.70;;;;;;6058725;23;20475;-86
2021/05/18 14:29:04;;;;;;;3.85;1.90;;;24.40;61.50;;;;;;6041804;23;20074;-86
2021/05/18 14:31:31;;;;;;;3.05;2.05;;;25.90;57.10;;;;;;6061421;23;20042;-87
2021/05/18 14:33:58;;;;;;;2.03;1.70;;;27.00;56.00;;;;;;6061956;23;20039;-87
2021/05/18 14:36:26;;;;;;;7.65;2.40;;;27.60;53.70;;;;;;6060238;23;20045;-87
2021/05/18 14:39:09;;;;;;;3.30;2.75;;;28.70;54.70;;;;;;6046426;23;20027;-86
2021/05/18 14:44:26;;;;;;;5.00;3.35;;;28.80;50.00;;;;;;6083783;23;20027;-87
2021/05/18 14:47:12;;;;;;;5.15;2.85;;;28.00;52.50;;;;;;6059570;23;20023;-86
2021/05/18 14:55:21;;;;;;;2.50;2.30;;;27.80;51.20;;;;;;6067169;23;20423;-86
2021/05/18 14:57:48;;;;;;;3.72;2.03;;;27.90;52.60;;;;;;6085605;23;20030;-86
2021/05/18 15:00:17;;;;;;;8.55;3.00;;;28.60;50.60;;;;;;6060594;23;20078;-86
2021/05/18 15:02:47;;;;;;;6.78;2.35;;;28.70;50.00;;;;;;6057435;23;20030;-85
2021/05/18 15:05:16;;;;;;;4.07;2.60;;;27.80;50.80;;;;;;6059442;23;20026;-85
2021/05/18 15:07:43;;;;;;;3.72;2.63;;;27.20;55.60;;;;;;6033735;23;20025;-86
2021/05/18 15:10:11;;;;;;;4.28;2.78;;;28.00;53.10;;;;;;6044214;23;20026;-86
2021/05/18 15:12:38;;;;;;;3.20;2.47;;;28.20;49.00;;;;;;6058986;23;20048;-87
2021/05/18 15:15:06;;;;;;;3.10;2.10;;;27.40;50.20;;;;;;6058972;23;20097;-86
2021/05/18 15:17:34;;;;;;;5.53;3.33;;;27.10;52.00;;;;;;6060648;23;20069;-86
2021/05/18 15:20:07;;;;;;;4.45;3.13;;;27.90;50.50;;;;;;6043769;23;20769;-86
2021/05/18 15:22:39;;;;;;;5.28;2.72;;;27.30;50.30;;;;;;6060967;23;20015;-85
2021/05/18 15:25:07;;;;;;;4.63;2.72;;;26.40;52.80;;;;;;6058134;23;20010;-86
2021/05/18 15:27:34;;;;;;;2.67;2.47;;;26.80;53.90;;;;;;6063171;23;20028;-86
2021/05/18 15:30:04;;;;;;;6.03;2.97;;;28.00;52.00;;;;;;6067516;23;20046;-86
2021/05/18 15:32:31;;;;;;;4.65;2.97;;;27.90;49.80;;;;;;6068529;23;20030;-85
2021/05/18 15:34:58;;;;;;;2.88;2.65;;;27.20;50.60;;;;;;6094818;23;20038;-86
2021/05/18 15:37:25;;;;;;;2.80;2.60;;;26.90;51.10;;;;;;6070104;23;20404;-86
2021/05/18 15:39:52;;;;;;;4.05;3.25;;;26.10;51.20;;;;;;6071489;23;20006;-86
2021/05/18 15:42:19;;;;;;;3.45;2.75;;;25.10;54.50;;;;;;6067134;23;20053;-86
2021/05/18 15:44:49;;;;;;;5.82;3.85;;;25.00;55.30;;;;;;6093759;23;20018;-90
2021/05/18 15:47:23;;;;;;;5.07;3.53;;;25.90;53.50;;;;;;6064707;23;20021;-89
2021/05/18 15:49:59;;;;;;;4.13;2.70;;;26.90;52.80;;;;;;6068693;23;20085;-88
2021/05/18 15:52:26;;;;;;;5.38;3.00;;;28.00;49.60;;;;;;6060477;23;20054;-88
2021/05/18 15:54:53;;;;;;;2.88;2.58;;;28.50;50.90;;;;;;6065044;23;20359;-88
2021/05/18 15:57:20;;;;;;;7.80;3.55;;;29.30;50.40;;;;;;6052852;23;20026;-87
2021/05/18 15:59:49;;;;;;;5.63;2.65;;;29.70;48.30;;;;;;6051196;23;20058;-88
2021/05/18 16:02:17;;;;;;;3.80;3.28;;;29.90;50.70;;;;;;6062414;23;20027;-88
2021/05/18 16:04:47;;;;;;;4.78;2.72;;;30.60;49.90;;;;;;6064128;23;20022;-89
2021/05/18 16:07:15;;;;;;;3.85;3.05;;;31.30;46.70;;;;;;6049927;23;20089;-89
2021/05/18 16:09:42;;;;;;;5.60;3.17;;;31.30;45.80;;;;;;6064621;23;20022;-88
2021/05/18 16:12:09;;;;;;;5.65;3.05;;;31.10;45.70;;;;;;6050537;23;20503;-89
2021/05/18 16:14:37;;;;;;;6.60;3.70;;;31.00;45.30;;;;;;6063379;23;20026;-88
2021/05/18 16:17:21;;;;;;;4.32;3.28;;;30.50;45.00;;;;;;6049499;23;20022;-89
2021/05/18 16:19:49;;;;;;;7.82;4.00;;;29.80;47.20;;;;;;6066549;23;20026;-88
2021/05/18 16:22:16;;;;;;;4.78;3.33;;;29.60;46.60;;;;;;6053684;23;20102;-86
2021/05/18 16:24:46;;;;;;;6.40;4.28;;;28.80;47.30;;;;;;6055824;23;20046;-88
2021/05/18 16:27:15;;;;;;;5.25;3.83;;;28.10;48.90;;;;;;6048957;23;20454;-88
2021/05/18 16:29:45;;;;;;;4.35;3.47;;;28.00;48.70;;;;;;6052736;23;20105;-87
2021/05/18 16:32:13;;;;;;;4.93;3.22;;;27.50;48.40;;;;;;6049957;23;20030;-87
2021/05/18 16:34:40;;;;;;;5.75;3.30;;;26.70;51.00;;;;;;6006375;23;20037;-88
2021/05/18 16:37:07;;;;;;;5.03;3.63;;;25.80;50.90;;;;;;6055098;23;20029;-88
2021/05/18 16:39:34;;;;;;;5.75;3.00;;;24.60;52.90;;;;;;6074403;23;20046;-88
2021/05/18 16:42:01;;;;;;;5.07;3.00;;;23.50;55.40;;;;;;6092245;23;20022;-87
2021/05/18 16:45:08;;;;;;;5.25;3.03;;;22.80;58.20;;;;;;6084786;23;20037;-88
2021/05/18 16:47:45;;;;;;;5.18;2.88;;;22.10;59.30;;;;;;6067843;23;20015;-88
2021/05/18 16:50:12;;;;;;;3.63;3.10;;;21.60;61.80;;;;;;6066210;23;20025;-88
2021/05/18 16:52:39;;;;;;;4.28;2.90;;;21.30;62.60;;;;;;6069972;23;20033;-88
2021/05/18 16:55:07;;;;;;;6.20;3.22;;;20.90;63.30;;;;;;6052951;23;20018;-88
2021/05/18 16:57:35;;;;;;;6.00;3.13;;;20.60;63.50;;;;;;6068047;23;20474;-88
2021/05/18 17:00:06;;;;;;;5.38;2.70;;;20.20;63.40;;;;;;6066627;23;20050;-89
2021/05/18 17:02:35;;;;;;;3.30;2.20;;;19.90;65.50;;;;;;6067072;23;20023;-88
2021/05/18 17:05:03;;;;;;;7.53;2.65;;;19.60;66.60;;;;;;6040489;23;20029;-88
2021/05/18 17:07:30;;;;;;;5.63;2.45;;;19.30;67.00;;;;;;6044835;23;20508;-88
2021/05/18 17:09:57;;;;;;;4.32;2.63;;;19.10;70.00;;;;;;6066760;23;20026;-88
2021/05/18 17:12:24;;;;;;;5.10;3.00;;;18.90;70.50;;;;;;6071539;23;20022;-88
2021/05/18 17:14:51;;;;;;;5.05;2.70;;;19.00;72.40;;;;;;6068264;23;20032;-89
2021/05/18 17:17:27;;;;;;;7.45;2.78;;;18.90;71.20;;;;;;6068745;23;20032;-88
2021/05/18 17:19:56;;;;;;;6.50;2.80;;;18.70;70.50;;;;;;6056015;23;20026;-89
2021/05/18 17:22:24;;;;;;;4.65;2.63;;;18.50;72.80;;;;;;6058600;23;20045;-87
2021/05/18 17:24:55;;;;;;;4.00;2.45;;;18.20;73.20;;;;;;6040639;23;20392;-89
2021/05/18 17:27:22;;;;;;;4.90;2.70;;;17.90;73.00;;;;;;6066612;23;20042;-88
2021/05/18 17:29:50;;;;;;;3.97;2.20;;;17.80;74.30;;;;;;6073108;23;20027;-88
2021/05/18 17:32:17;;;;;;;4.82;2.97;;;17.60;75.80;;;;;;6080809;23;20023;-88
2021/05/18 17:34:45;;;;;;;4.70;2.50;;;17.40;77.20;;;;;;6081159;23;20026;-87
2021/05/18 17:37:12;;;;;;;5.68;3.50;;;17.40;80.10;;;;;;6081147;23;20041;-88
2021/05/18 17:39:40;;;;;;;3.95;2.35;;;17.40;81.10;;;;;;6078535;23;20010;-87
2021/05/18 17:42:07;;;;;;;4.60;2.35;;;17.50;82.40;;;;;;6080414;23;20101;-88
2021/05/18 17:44:36;;;;;;;3.70;2.03;;;17.50;81.10;;;;;;6073102;23;20026;-87
2021/05/18 17:47:03;;;;;;;4.38;2.20;;;17.50;78.80;;;;;;6092872;23;20085;-87
2021/05/18 17:49:30;;;;;;;2.20;1.55;;;17.30;81.20;;;;;;6053506;23;20033;-88
2021/05/18 17:51:57;;;;;;;3.40;1.52;;;17.20;79.20;;;;;;6069207;23;20074;-87